Time;durP1;ratioP1;P1;durP2;ratioP2;P2;SDS_P1;SDS_P2;PMS_P1;PMS_P2;Temp;Humidity;BMP_temperature;BMP_pressure;BME280_temperature;BME280_humidity;BME280_pressure;Samples;Min_cycle;Max_cycle;Signal;HPM_P1;HPM_P2
2022/05/18 00:01:07;;;;;;;5.85;4.15;;;16.60;68.50;;;;;;1822234;79;21013;-59
2022/05/18 00:03:39;;;;;;;5.22;3.27;;;16.60;68.50;;;;;;1825541;77;21052;-59
2022/05/18 00:06:10;;;;;;;5.00;3.25;;;16.60;68.30;;;;;;1834054;78;21096;-59
2022/05/18 00:08:40;;;;;;;4.53;3.20;;;16.60;67.90;;;;;;1834038;78;21025;-59
2022/05/18 00:11:14;;;;;;;3.98;3.10;;;16.60;67.70;;;;;;1833978;78;21107;-59
2022/05/18 00:13:46;;;;;;;3.90;3.40;;;16.60;67.30;;;;;;1834362;78;21079;-59
2022/05/18 00:16:16;;;;;;;4.85;3.58;;;16.60;67.30;;;;;;1834148;78;21028;-59
2022/05/18 00:18:46;;;;;;;3.30;3.00;;;16.60;67.20;;;;;;1834034;78;21102;-59
2022/05/18 00:21:15;;;;;;;3.33;2.72;;;16.70;67.10;;;;;;1834086;78;21143;-60
2022/05/18 00:23:45;;;;;;;4.65;3.75;;;16.70;67.00;;;;;;1834181;78;21053;-59
2022/05/18 00:26:15;;;;;;;5.75;3.90;;;16.80;66.80;;;;;;1834152;78;21036;-60
2022/05/18 00:28:44;;;;;;;3.22;2.92;;;16.80;66.80;;;;;;1834058;78;21098;-60
2022/05/18 00:31:17;;;;;;;5.03;2.98;;;16.80;66.70;;;;;;1834109;78;21032;-60
2022/05/18 00:33:47;;;;;;;4.20;3.17;;;16.70;66.60;;;;;;1834209;78;21075;-59
2022/05/18 00:36:16;;;;;;;3.90;3.08;;;16.70;66.50;;;;;;1834200;78;21036;-60
2022/05/18 00:38:46;;;;;;;4.30;3.10;;;16.70;66.50;;;;;;1834104;78;21037;-59
2022/05/18 00:41:19;;;;;;;4.15;3.75;;;16.70;66.40;;;;;;1834062;78;21032;-60
2022/05/18 00:43:46;;;;;;;4.65;3.10;;;16.70;66.10;;;;;;1833956;78;21032;-60
2022/05/18 00:46:16;;;;;;;6.60;3.22;;;16.70;66.20;;;;;;1834179;78;21032;-59
2022/05/18 00:48:46;;;;;;;5.17;2.80;;;16.70;66.00;;;;;;1834138;78;21028;-60
2022/05/18 00:51:26;;;;;;;3.27;2.90;;;16.70;65.90;;;;;;1834095;78;21106;-60
2022/05/18 00:54:04;;;;;;;4.75;3.70;;;16.60;65.70;;;;;;1834348;76;21115;-59
2022/05/18 00:56:37;;;;;;;6.28;2.92;;;16.60;65.80;;;;;;1834144;78;21048;-59
2022/05/18 00:59:12;;;;;;;6.75;3.52;;;16.60;65.80;;;;;;1833784;78;21052;-60
2022/05/18 01:01:41;;;;;;;4.78;3.47;;;16.60;65.80;;;;;;1834259;77;21541;-59
2022/05/18 01:04:12;;;;;;;6.70;3.08;;;16.60;65.90;;;;;;1834190;77;21122;-59
2022/05/18 01:06:49;;;;;;;5.95;4.08;;;16.50;65.90;;;;;;1834058;78;21012;-60
2022/05/18 01:09:24;;;;;;;3.65;2.92;;;16.50;65.90;;;;;;1834110;78;21036;-60
2022/05/18 01:11:52;;;;;;;;;;;16.50;65.90;;;;;;1836903;78;21056;-60
2022/05/18 01:14:39;;;;;;;8.83;2.90;;;16.50;66.30;;;;;;1834085;78;20098;-59
2022/05/18 01:17:11;;;;;;;5.50;2.90;;;16.50;66.20;;;;;;1834162;78;21017;-59
2022/05/18 01:19:45;;;;;;;6.72;3.20;;;16.50;66.50;;;;;;1834183;78;21032;-60
2022/05/18 01:22:40;;;;;;;3.92;3.47;;;16.50;66.60;;;;;;1834191;78;21060;-59
2022/05/18 01:25:30;;;;;;;3.90;3.27;;;16.50;66.80;;;;;;1834323;78;21123;-60
2022/05/18 01:28:01;;;;;;;4.20;3.50;;;16.60;66.80;;;;;;1834169;78;21099;-60
2022/05/18 01:30:31;;;;;;;3.77;3.30;;;16.60;66.80;;;;;;1834080;78;21028;-60
2022/05/18 01:33:02;;;;;;;5.12;3.20;;;16.60;66.70;;;;;;1834175;78;21009;-60
2022/05/18 01:35:33;;;;;;;4.58;3.25;;;16.60;66.70;;;;;;1834057;78;21000;-60
2022/05/18 01:38:02;;;;;;;5.75;3.60;;;16.60;66.60;;;;;;1834149;78;21036;-60
2022/05/18 01:40:51;;;;;;;6.85;3.75;;;16.70;66.60;;;;;;1834089;78;21026;-60
2022/05/18 01:43:31;;;;;;;7.47;3.15;;;16.70;66.70;;;;;;1834128;78;21046;-60
2022/05/18 01:46:03;;;;;;;4.72;3.55;;;16.60;66.60;;;;;;1833999;78;21099;-60
2022/05/18 01:48:35;;;;;;;5.22;3.50;;;16.70;66.70;;;;;;1834049;78;21106;-60
2022/05/18 01:51:06;;;;;;;6.17;3.40;;;16.70;66.80;;;;;;1834220;78;21091;-60
2022/05/18 01:53:36;;;;;;;4.35;3.42;;;16.70;66.70;;;;;;1834209;78;21032;-60
2022/05/18 01:56:08;;;;;;;7.67;3.62;;;16.60;66.70;;;;;;1834064;78;21520;-60
2022/05/18 01:58:36;;;;;;;5.58;3.92;;;16.60;66.80;;;;;;1834113;78;21028;-60
2022/05/18 02:01:06;;;;;;;5.00;3.42;;;16.60;67.00;;;;;;1834242;78;21034;-60
2022/05/18 02:03:35;;;;;;;5.15;3.45;;;16.60;66.90;;;;;;1834137;78;21052;-60
2022/05/18 02:06:05;;;;;;;4.22;3.58;;;16.60;67.10;;;;;;1833943;77;21130;-60
2022/05/18 02:08:34;;;;;;;4.12;3.52;;;16.60;67.00;;;;;;1834040;78;21158;-60
2022/05/18 02:11:03;;;;;;;5.17;3.80;;;16.70;67.30;;;;;;1833981;78;21040;-60
2022/05/18 02:13:32;;;;;;;5.00;3.55;;;16.60;66.90;;;;;;1834095;78;21541;-60
2022/05/18 02:16:03;;;;;;;5.90;3.55;;;16.70;67.10;;;;;;1834028;78;21082;-60
2022/05/18 02:18:33;;;;;;;5.83;3.85;;;16.70;67.20;;;;;;1834132;78;21090;-60
2022/05/18 02:21:08;;;;;;;6.78;4.30;;;16.70;67.20;;;;;;1834012;78;21040;-60
2022/05/18 02:23:37;;;;;;;5.95;3.50;;;16.70;67.10;;;;;;1834085;78;21502;-60
2022/05/18 02:26:11;;;;;;;5.83;3.62;;;16.70;67.00;;;;;;1791960;80;21062;-60
2022/05/18 02:28:41;;;;;;;4.08;3.60;;;16.70;67.00;;;;;;1834399;78;21040;-60
2022/05/18 02:31:12;;;;;;;3.72;3.27;;;16.70;67.10;;;;;;1791953;80;21087;-60
2022/05/18 02:33:41;;;;;;;6.40;3.60;;;16.70;67.10;;;;;;1834141;78;21012;-60
2022/05/18 02:36:11;;;;;;;6.72;3.12;;;16.70;67.00;;;;;;1791934;80;21204;-60
2022/05/18 02:38:41;;;;;;;4.30;3.05;;;16.70;66.90;;;;;;1834120;78;21012;-60
2022/05/18 02:41:11;;;;;;;5.10;3.33;;;16.70;66.70;;;;;;1792019;80;21055;-60
2022/05/18 02:43:40;;;;;;;5.05;3.52;;;16.70;66.50;;;;;;1834106;78;21008;-60
2022/05/18 02:46:16;;;;;;;2.87;2.67;;;16.70;66.20;;;;;;1791954;80;21501;-60
2022/05/18 02:48:46;;;;;;;4.28;3.00;;;16.80;66.30;;;;;;1834213;78;21040;-60
2022/05/18 02:51:16;;;;;;;6.17;3.27;;;16.80;66.00;;;;;;1791908;80;21204;-60
2022/05/18 02:53:45;;;;;;;4.70;2.83;;;16.80;65.50;;;;;;1833994;78;21153;-60
2022/05/18 02:56:17;;;;;;;6.67;3.40;;;16.80;65.20;;;;;;1791821;80;21088;-60
2022/05/18 02:58:48;;;;;;;3.75;3.08;;;16.80;65.10;;;;;;1833658;78;21130;-60
2022/05/18 03:01:24;;;;;;;6.87;3.00;;;16.80;64.90;;;;;;1834073;78;21067;-60
2022/05/18 03:03:55;;;;;;;4.15;2.83;;;16.80;64.70;;;;;;1834085;78;21036;-60
2022/05/18 03:06:26;;;;;;;5.72;3.10;;;16.90;64.50;;;;;;1833959;77;21153;-60
2022/05/18 03:08:55;;;;;;;3.02;2.72;;;16.90;64.20;;;;;;1834135;78;21514;-59
2022/05/18 03:11:24;;;;;;;6.28;2.75;;;16.90;63.80;;;;;;1833986;78;21084;-59
2022/05/18 03:13:54;;;;;;;6.33;2.98;;;16.90;63.70;;;;;;1833987;78;21032;-59
2022/05/18 03:16:25;;;;;;;3.85;2.70;;;16.90;63.60;;;;;;1834018;78;21032;-59
2022/05/18 03:18:54;;;;;;;3.02;2.83;;;16.90;63.60;;;;;;1834144;78;21086;-59
2022/05/18 03:24:11;;;;;;;7.80;3.02;;;17.00;63.50;;;;;;1834094;78;21013;-59
2022/05/18 03:26:40;;;;;;;3.02;2.75;;;17.00;63.40;;;;;;1834060;78;21075;-59
2022/05/18 03:29:28;;;;;;;15.35;4.53;;;17.10;63.40;;;;;;1833970;78;21032;-59
2022/05/18 03:31:59;;;;;;;6.15;3.83;;;17.10;63.60;;;;;;1803358;79;21083;-59
2022/05/18 03:34:28;;;;;;;5.47;3.17;;;17.20;63.40;;;;;;1803388;79;21031;-59
2022/05/18 03:36:57;;;;;;;4.62;3.00;;;17.30;63.30;;;;;;1803500;79;21080;-59
2022/05/18 03:39:27;;;;;;;4.75;3.17;;;17.40;63.40;;;;;;1803424;79;21047;-59
2022/05/18 03:41:57;;;;;;;7.45;3.33;;;17.50;63.30;;;;;;1803330;79;21079;-59
2022/05/18 03:44:26;;;;;;;4.90;3.02;;;17.50;63.10;;;;;;1803454;79;21052;-59
2022/05/18 03:46:56;;;;;;;7.90;2.95;;;17.60;63.20;;;;;;1803492;79;21047;-59
2022/05/18 03:49:25;;;;;;;5.15;3.40;;;17.60;63.10;;;;;;1803641;79;21129;-59
2022/05/18 03:51:54;;;;;;;6.60;3.30;;;17.60;63.00;;;;;;1803575;79;21047;-59
2022/05/18 03:54:24;;;;;;;7.00;3.15;;;17.70;62.90;;;;;;1803584;79;21068;-59
2022/05/18 03:56:54;;;;;;;4.67;3.45;;;17.70;63.00;;;;;;1803550;79;21027;-59
2022/05/18 03:59:24;;;;;;;4.75;3.12;;;17.70;63.20;;;;;;1803610;79;21047;-59
2022/05/18 04:01:53;;;;;;;7.42;3.60;;;17.80;63.20;;;;;;1803538;79;21104;-59
2022/05/18 04:04:23;;;;;;;6.50;3.77;;;17.80;63.30;;;;;;1803588;79;21074;-59
2022/05/18 04:06:53;;;;;;;5.62;3.47;;;17.80;63.20;;;;;;1803509;79;21149;-59
2022/05/18 04:09:22;;;;;;;6.08;3.30;;;17.80;63.20;;;;;;1803568;79;21114;-59
2022/05/18 04:11:51;;;;;;;8.38;4.00;;;17.80;63.50;;;;;;1803723;79;21075;-59
2022/05/18 04:14:21;;;;;;;7.35;3.90;;;17.80;63.60;;;;;;1803500;79;21093;-59
2022/05/18 04:16:50;;;;;;;9.25;5.15;;;17.80;63.80;;;;;;1803601;79;21076;-59
2022/05/18 04:19:20;;;;;;;5.65;3.80;;;17.80;64.10;;;;;;1803435;79;21051;-59
2022/05/18 04:21:49;;;;;;;11.57;4.10;;;17.80;64.30;;;;;;1803693;79;21056;-59
2022/05/18 04:24:18;;;;;;;17.85;4.65;;;17.90;64.10;;;;;;1803543;79;21084;-59
2022/05/18 04:26:48;;;;;;;13.20;4.35;;;17.90;64.00;;;;;;1803538;79;21059;-59
2022/05/18 04:29:17;;;;;;;8.23;3.67;;;18.00;64.00;;;;;;1803511;79;21118;-59
2022/05/18 04:31:47;;;;;;;6.12;3.90;;;18.00;64.10;;;;;;1803423;78;21055;-59
2022/05/18 04:34:17;;;;;;;7.15;3.87;;;18.00;64.20;;;;;;1803583;79;21098;-59
2022/05/18 04:36:46;;;;;;;22.77;5.00;;;18.00;64.20;;;;;;1803536;79;21149;-60
2022/05/18 04:39:16;;;;;;;8.53;4.47;;;18.00;64.20;;;;;;1803556;79;21087;-60
2022/05/18 04:41:45;;;;;;;10.20;4.22;;;18.10;64.40;;;;;;1803548;79;21045;-60
2022/05/18 04:44:15;;;;;;;4.80;3.92;;;18.00;64.60;;;;;;1803590;79;21109;-60
2022/05/18 04:46:44;;;;;;;4.30;3.90;;;18.00;64.70;;;;;;1803508;79;21071;-60
2022/05/18 04:49:14;;;;;;;8.53;3.60;;;18.00;65.00;;;;;;1803523;79;21098;-59
2022/05/18 04:51:43;;;;;;;5.08;3.95;;;18.10;65.10;;;;;;1803571;79;21205;-60
2022/05/18 04:54:13;;;;;;;7.75;4.05;;;18.10;65.30;;;;;;1803561;79;21087;-60
2022/05/18 04:56:42;;;;;;;6.62;3.45;;;18.10;65.40;;;;;;1803446;79;21055;-60
2022/05/18 04:59:12;;;;;;;7.97;4.33;;;18.10;65.50;;;;;;1803590;79;21118;-59
2022/05/18 05:01:43;;;;;;;11.73;4.22;;;18.10;65.60;;;;;;1803620;79;21105;-59
2022/05/18 05:04:13;;;;;;;12.90;4.47;;;18.00;65.80;;;;;;1803544;79;21027;-59
2022/05/18 05:06:43;;;;;;;6.03;3.90;;;18.00;65.90;;;;;;1803505;79;21157;-60
2022/05/18 05:09:13;;;;;;;5.37;4.15;;;18.00;66.00;;;;;;1803471;79;21233;-60
2022/05/18 05:11:42;;;;;;;11.18;4.85;;;18.10;66.10;;;;;;1803429;79;21099;-60
2022/05/18 05:14:12;;;;;;;11.40;4.22;;;18.00;66.10;;;;;;1803483;79;21071;-60
2022/05/18 05:16:41;;;;;;;6.58;4.20;;;18.10;66.10;;;;;;1803511;79;21055;-60
2022/05/18 05:19:10;;;;;;;11.68;4.25;;;18.00;66.20;;;;;;1803424;79;21055;-60
2022/05/18 05:21:45;;;;;;;8.58;3.52;;;18.10;66.10;;;;;;1803511;79;21100;-60
2022/05/18 05:24:11;;;;;;;9.98;4.45;;;18.20;66.20;;;;;;1802449;79;21104;-60
2022/05/18 05:26:41;;;;;;;7.37;3.87;;;18.10;66.20;;;;;;1803348;79;21215;-60
2022/05/18 05:29:12;;;;;;;6.05;4.25;;;18.20;66.10;;;;;;1803422;79;21063;-60
2022/05/18 05:31:42;;;;;;;10.18;4.75;;;18.20;66.00;;;;;;1804844;79;21138;-60
2022/05/18 05:34:11;;;;;;;9.93;4.22;;;18.30;66.10;;;;;;1807341;79;21055;-60
2022/05/18 05:36:40;;;;;;;4.55;3.92;;;18.30;66.00;;;;;;1807430;79;21125;-60
2022/05/18 05:39:10;;;;;;;10.65;3.75;;;18.30;65.90;;;;;;1807396;78;21059;-60
2022/05/18 05:41:39;;;;;;;6.15;3.80;;;18.30;65.70;;;;;;1807438;79;21134;-60
2022/05/18 05:44:10;;;;;;;4.65;3.67;;;18.30;65.50;;;;;;1807497;79;21059;-60
2022/05/18 05:46:39;;;;;;;4.30;3.62;;;18.30;65.40;;;;;;1807464;78;21039;-60
2022/05/18 05:49:08;;;;;;;6.05;3.70;;;18.30;65.10;;;;;;1807427;78;21068;-60
2022/05/18 05:51:38;;;;;;;13.43;5.60;;;18.30;64.90;;;;;;1807327;79;21019;-60
2022/05/18 05:54:08;;;;;;;6.92;4.00;;;18.40;64.70;;;;;;1807174;78;21043;-60
2022/05/18 05:56:37;;;;;;;6.35;3.87;;;18.40;64.60;;;;;;1807231;78;21121;-60
2022/05/18 05:59:06;;;;;;;5.47;3.47;;;18.50;64.50;;;;;;1807552;78;21055;-60
2022/05/18 06:01:36;;;;;;;6.90;3.10;;;18.50;64.00;;;;;;1807439;79;21051;-60
2022/05/18 06:04:07;;;;;;;5.15;3.05;;;18.60;63.30;;;;;;1807492;78;21051;-60
2022/05/18 06:06:37;;;;;;;7.15;3.50;;;18.60;63.40;;;;;;1807291;78;21125;-60
2022/05/18 06:09:10;;;;;;;7.78;4.47;;;18.70;63.40;;;;;;1807383;78;21031;-60
2022/05/18 06:11:40;;;;;;;5.50;3.37;;;18.90;63.40;;;;;;1807471;79;21067;-60
2022/05/18 06:14:09;;;;;;;5.60;3.25;;;19.10;63.00;;;;;;1807494;78;21114;-60
2022/05/18 06:16:38;;;;;;;4.97;3.02;;;19.30;62.20;;;;;;1807376;78;21035;-60
2022/05/18 06:19:08;;;;;;;9.93;3.22;;;19.40;61.70;;;;;;1807359;79;21912;-60
2022/05/18 06:21:37;;;;;;;3.30;2.95;;;19.50;60.90;;;;;;1807342;78;21059;-60
2022/05/18 06:24:07;;;;;;;6.70;2.50;;;19.60;60.50;;;;;;1807505;79;21050;-60
2022/05/18 06:26:37;;;;;;;5.95;2.90;;;19.80;60.20;;;;;;1807461;79;21145;-60
2022/05/18 06:29:06;;;;;;;5.67;3.17;;;20.00;59.60;;;;;;1807400;78;21051;-60
2022/05/18 06:31:35;;;;;;;3.60;2.20;;;20.10;59.00;;;;;;1807206;78;21564;-61
2022/05/18 06:34:05;;;;;;;5.35;2.90;;;20.10;58.10;;;;;;1803476;78;21149;-60
2022/05/18 06:36:34;;;;;;;8.00;3.20;;;20.10;58.80;;;;;;1803382;79;21201;-60
2022/05/18 06:39:04;;;;;;;18.45;3.17;;;20.00;57.80;;;;;;1803388;79;21117;-60
2022/05/18 06:41:35;;;;;;;4.17;2.60;;;20.00;58.20;;;;;;1803298;79;21165;-60
2022/05/18 06:44:05;;;;;;;3.42;2.60;;;19.90;58.20;;;;;;1802983;79;21166;-60
2022/05/18 06:46:37;;;;;;;10.40;2.83;;;20.00;58.00;;;;;;1803383;79;21589;-60
2022/05/18 06:49:09;;;;;;;5.10;2.17;;;20.00;57.80;;;;;;1803394;79;21047;-60
2022/05/18 06:51:42;;;;;;;24.98;4.35;;;20.00;57.80;;;;;;1803378;79;21059;-60
2022/05/18 06:54:12;;;;;;;15.10;3.52;;;20.00;57.20;;;;;;1803478;79;21051;-60
2022/05/18 06:56:43;;;;;;;5.80;2.77;;;20.00;57.40;;;;;;1803511;79;21080;-60
2022/05/18 06:59:14;;;;;;;11.75;3.15;;;20.00;57.30;;;;;;1803424;79;21027;-60
2022/05/18 07:04:34;;;;;;;14.50;3.33;;;20.00;56.80;;;;;;1861203;77;21036;-60
2022/05/18 07:07:03;;;;;;;21.82;3.75;;;20.00;57.20;;;;;;1861290;77;21017;-60
2022/05/18 07:09:32;;;;;;;10.60;2.95;;;20.00;56.40;;;;;;1861305;77;21107;-60
2022/05/18 07:14:53;;;;;;;13.85;2.80;;;20.00;56.90;;;;;;1891501;76;21043;-59
2022/05/18 07:17:23;;;;;;;5.70;2.90;;;20.00;57.20;;;;;;1891420;76;21133;-59
2022/05/18 07:19:52;;;;;;;10.20;3.05;;;20.10;57.30;;;;;;1890510;75;21055;-59
2022/05/18 07:22:21;;;;;;;34.92;5.12;;;20.30;56.70;;;;;;1890734;74;21123;-59
2022/05/18 07:24:51;;;;;;;9.93;2.50;;;20.40;56.80;;;;;;1873294;76;21036;-59
2022/05/18 07:27:20;;;;;;;7.95;2.67;;;20.50;56.80;;;;;;1849278;77;20995;-59
2022/05/18 07:29:49;;;;;;;5.53;2.70;;;20.60;56.30;;;;;;1838974;77;21035;-59
2022/05/18 07:32:19;;;;;;;4.78;2.70;;;20.70;56.60;;;;;;1838115;77;21197;-59
2022/05/18 07:34:48;;;;;;;6.67;2.90;;;20.80;55.90;;;;;;1891113;76;21030;-58
2022/05/18 07:37:19;;;;;;;4.42;2.25;;;21.10;55.50;;;;;;1891412;76;21006;-59
2022/05/18 07:39:49;;;;;;;11.75;2.47;;;21.30;54.90;;;;;;1891443;76;21021;-59
2022/05/18 07:42:18;;;;;;;12.20;3.72;;;21.40;53.20;;;;;;1892014;74;21465;-59
2022/05/18 07:44:48;;;;;;;9.30;2.45;;;21.40;52.70;;;;;;1904368;74;21012;-58
2022/05/18 07:47:20;;;;;;;13.10;2.92;;;21.40;52.00;;;;;;1924038;74;21082;-59
2022/05/18 07:49:49;;;;;;;5.83;2.83;;;21.50;51.20;;;;;;1921112;74;21055;-59
2022/05/18 07:52:18;;;;;;;25.40;3.70;;;21.50;51.00;;;;;;1923483;74;21012;-58
2022/05/18 07:54:47;;;;;;;4.40;2.40;;;21.60;50.50;;;;;;1923734;74;21086;-59
2022/05/18 07:57:18;;;;;;;13.62;2.45;;;21.70;50.90;;;;;;1922743;74;21083;-61
2022/05/18 07:59:47;;;;;;;10.65;2.55;;;21.80;49.30;;;;;;1885976;74;21025;-60
2022/05/18 08:02:16;;;;;;;7.00;1.95;;;21.90;48.00;;;;;;1885325;76;21054;-60
2022/05/18 08:04:46;;;;;;;13.15;3.10;;;21.90;48.30;;;;;;1885216;76;21088;-65
2022/05/18 08:07:15;;;;;;;47.75;5.97;;;22.00;48.30;;;;;;1899650;75;21029;-61
2022/05/18 08:15:39;;;;;;;16.87;2.72;;;22.30;48.20;;;;;;1783994;80;21197;-61
2022/05/18 08:18:09;;;;;;;5.47;1.60;;;22.30;47.00;;;;;;1783957;80;21144;-61
2022/05/18 08:20:41;;;;;;;9.03;2.55;;;22.40;47.20;;;;;;1783868;80;21148;-57
2022/05/18 08:23:10;;;;;;;10.70;2.95;;;22.40;47.70;;;;;;1783921;80;21114;-62
2022/05/18 08:25:39;;;;;;;3.70;1.87;;;22.40;47.50;;;;;;1784049;80;21572;-60
2022/05/18 08:28:09;;;;;;;4.83;1.47;;;22.40;47.10;;;;;;1774007;80;21186;-61
2022/05/18 08:30:39;;;;;;;9.83;2.25;;;22.50;46.60;;;;;;1770077;80;21168;-69
2022/05/18 08:33:09;;;;;;;12.00;1.85;;;22.50;46.30;;;;;;1769491;79;21072;-66
2022/05/18 08:35:39;;;;;;;10.65;2.80;;;22.60;45.30;;;;;;1769199;79;21225;-61
2022/05/18 08:38:09;;;;;;;13.93;3.17;;;22.60;45.10;;;;;;1765548;79;21129;-61
2022/05/18 08:40:47;;;;;;;13.28;2.20;;;22.70;45.50;;;;;;1764532;81;21085;-61
2022/05/18 08:43:20;;;;;;;6.85;2.10;;;22.70;44.90;;;;;;1764945;81;21100;-68
2022/05/18 08:45:52;;;;;;;12.35;2.30;;;22.80;44.70;;;;;;1764071;81;21594;-61
2022/05/18 08:48:42;;;;;;;17.02;3.40;;;22.80;44.30;;;;;;1764049;81;21110;-66
2022/05/18 08:51:20;;;;;;;11.63;2.30;;;23.00;44.90;;;;;;1764766;80;21118;-62
2022/05/18 08:54:13;;;;;;;3.77;1.87;;;23.00;43.60;;;;;;1763251;80;21056;-63
2022/05/18 08:56:45;;;;;;;10.45;2.17;;;23.00;42.80;;;;;;1764044;81;21709;-64
2022/05/18 08:59:19;;;;;;;11.05;2.62;;;22.90;43.80;;;;;;1764791;81;21028;-63
2022/05/18 09:01:50;;;;;;;;;;;22.90;44.20;;;;;;1767432;81;21195;-65
2022/05/18 09:04:41;;;;;;;5.22;2.20;;;22.80;43.50;;;;;;1764743;81;20148;-68
2022/05/18 09:07:16;;;;;;;8.43;2.58;;;22.70;44.00;;;;;;1764321;81;21136;-63
2022/05/18 09:12:43;;;;;;;5.05;1.72;;;22.50;45.00;;;;;;1794218;80;21147;-63
2022/05/18 09:15:15;;;;;;;6.17;1.65;;;22.40;45.00;;;;;;1798252;80;21419;-65
2022/05/18 09:18:01;;;;;;;3.70;1.75;;;22.40;45.20;;;;;;1798600;80;21072;-61
2022/05/18 09:20:49;;;;;;;7.30;2.02;;;22.40;45.10;;;;;;1798369;80;21154;-65
2022/05/18 09:23:27;;;;;;;12.88;1.92;;;22.50;45.50;;;;;;1798500;80;21081;-64
2022/05/18 09:26:23;;;;;;;12.90;3.92;;;22.70;45.00;;;;;;1797991;79;21307;-64
2022/05/18 09:29:12;;;;;;;6.20;1.60;;;22.80;45.30;;;;;;1797483;80;21060;-64
2022/05/18 09:32:05;;;;;;;4.33;2.00;;;22.80;44.10;;;;;;1797711;80;21096;-68
2022/05/18 09:35:08;;;;;;;30.55;4.03;;;22.80;44.40;;;;;;1796890;80;21190;-62
2022/05/18 09:37:40;;;;;;;5.37;2.12;;;22.70;44.30;;;;;;1798466;80;21103;-68
2022/05/18 09:40:11;;;;;;;6.78;2.50;;;22.60;44.80;;;;;;1798245;80;21049;-68
2022/05/18 09:42:44;;;;;;;7.80;1.95;;;22.50;44.70;;;;;;1798053;80;21574;-69
2022/05/18 09:45:22;;;;;;;4.28;2.72;;;22.50;44.30;;;;;;1797964;80;21017;-65
2022/05/18 09:47:57;;;;;;;14.10;4.25;;;22.50;44.30;;;;;;1798190;80;21184;-64
2022/05/18 09:50:26;;;;;;;12.63;3.67;;;22.40;44.10;;;;;;1794268;80;21209;-63
2022/05/18 09:52:57;;;;;;;7.85;2.70;;;22.40;44.10;;;;;;1798248;80;21566;-64
2022/05/18 09:55:28;;;;;;;7.83;4.17;;;22.30;44.50;;;;;;1798164;80;21573;-62
2022/05/18 09:58:02;;;;;;;7.85;2.50;;;22.30;45.10;;;;;;1798738;79;21081;-67
2022/05/18 10:00:32;;;;;;;;;;;22.30;45.10;;;;;;1801276;80;21021;-65
2022/05/18 10:08:52;;;;;;;6.40;2.52;;;22.50;44.60;;;;;;1798542;80;21051;-65
2022/05/18 10:11:23;;;;;;;14.85;2.67;;;22.60;44.60;;;;;;1769687;81;21528;-64
2022/05/18 10:14:19;;;;;;;9.50;2.30;;;22.80;44.60;;;;;;1769690;81;21062;-66
2022/05/18 10:17:07;;;;;;;9.08;2.85;;;23.00;44.00;;;;;;1767600;81;21705;-64
2022/05/18 10:19:51;;;;;;;5.95;2.27;;;23.20;43.30;;;;;;1769425;81;21030;-65
2022/05/18 10:22:26;;;;;;;4.42;1.80;;;23.30;43.00;;;;;;1814519;78;21154;-63
2022/05/18 10:25:07;;;;;;;11.10;2.50;;;23.30;42.80;;;;;;1796047;79;21487;-64
2022/05/18 10:27:39;;;;;;;4.17;2.42;;;23.40;42.90;;;;;;1797167;80;21132;-64
2022/05/18 10:30:19;;;;;;;7.83;2.35;;;23.40;43.00;;;;;;1797003;80;21069;-64
2022/05/18 10:32:58;;;;;;;3.80;2.02;;;23.50;43.10;;;;;;1797462;79;21112;-61
2022/05/18 10:35:47;;;;;;;5.90;2.20;;;23.70;42.50;;;;;;1786619;80;21076;-61
2022/05/18 10:38:24;;;;;;;4.22;2.25;;;23.90;42.50;;;;;;1761135;81;21002;-65
2022/05/18 10:40:56;;;;;;;4.60;2.08;;;23.90;41.70;;;;;;1761136;81;21032;-65
2022/05/18 10:43:30;;;;;;;7.58;3.87;;;23.90;41.60;;;;;;1757732;81;21182;-58
2022/05/18 10:46:02;;;;;;;9.75;3.33;;;23.90;41.90;;;;;;1761135;81;21147;-63
2022/05/18 10:48:33;;;;;;;29.57;12.50;;;23.90;41.80;;;;;;1761031;81;21028;-63
2022/05/18 10:51:06;;;;;;;6.05;4.33;;;23.90;41.40;;;;;;1772865;78;21100;-69
2022/05/18 10:53:41;;;;;;;9.60;3.22;;;23.90;41.70;;;;;;1822629;78;21424;-64
2022/05/18 10:56:17;;;;;;;;;;;23.90;41.60;;;;;;1833571;78;21648;-65
2022/05/18 10:58:51;;;;;;;5.87;2.33;;;23.80;41.00;;;;;;1815412;77;20190;-70
2022/05/18 11:01:25;;;;;;;8.05;1.92;;;23.70;42.00;;;;;;1775513;78;21109;-61
2022/05/18 11:04:15;;;;;;;5.37;1.98;;;23.60;41.70;;;;;;1823485;78;21587;-63
2022/05/18 11:06:44;;;;;;;4.72;2.27;;;23.50;41.50;;;;;;1823899;78;21135;-64
2022/05/18 11:09:25;;;;;;;3.92;1.62;;;23.40;42.10;;;;;;1820359;78;21029;-63
2022/05/18 11:11:58;;;;;;;3.75;2.35;;;23.30;42.10;;;;;;1817267;78;21040;-63
2022/05/18 11:15:03;;;;;;;7.58;2.42;;;23.20;42.00;;;;;;1833936;78;21111;-61
2022/05/18 11:17:41;;;;;;;6.30;2.10;;;23.10;42.10;;;;;;1829364;78;21534;-59
2022/05/18 11:20:18;;;;;;;3.98;2.02;;;23.00;42.60;;;;;;1801957;78;21053;-60
2022/05/18 11:23:08;;;;;;;3.15;1.95;;;22.90;42.50;;;;;;1797293;79;21140;-60
2022/05/18 11:25:46;;;;;;;6.25;2.62;;;22.80;43.10;;;;;;1803736;79;21608;-60
2022/05/18 11:28:48;;;;;;;10.00;3.52;;;22.70;43.00;;;;;;1801059;77;21554;-64
2022/05/18 11:31:46;;;;;;;8.05;3.10;;;22.60;42.90;;;;;;1814728;79;21053;-64
2022/05/18 11:34:39;;;;;;;8.03;2.80;;;22.60;43.20;;;;;;1781064;79;21055;-59
2022/05/18 11:37:17;;;;;;;5.15;2.25;;;22.50;44.00;;;;;;1777048;79;21036;-60
2022/05/18 11:39:49;;;;;;;5.62;2.27;;;22.50;44.10;;;;;;1780465;79;21106;-61
2022/05/18 11:42:30;;;;;;;5.70;2.00;;;22.60;44.30;;;;;;1777176;81;21201;-65
2022/05/18 11:45:29;;;;;;;3.70;2.22;;;22.60;44.30;;;;;;1775832;78;21088;-65
2022/05/18 11:48:04;;;;;;;4.53;2.05;;;22.60;44.70;;;;;;1780663;80;21127;-66
2022/05/18 11:50:36;;;;;;;5.10;2.70;;;22.70;45.30;;;;;;1776370;81;21138;-62
2022/05/18 11:53:10;;;;;;;8.75;3.08;;;22.80;45.70;;;;;;1836554;76;21106;-58
2022/05/18 11:55:51;;;;;;;4.05;2.17;;;22.80;45.90;;;;;;1810386;77;21082;-57
2022/05/18 11:58:57;;;;;;;2.27;1.98;;;22.90;45.90;;;;;;1833442;76;21093;-59
2022/05/18 12:01:29;;;;;;;6.62;2.35;;;22.90;45.40;;;;;;1890108;76;21095;-59
2022/05/18 12:04:18;;;;;;;3.62;2.20;;;23.00;45.50;;;;;;1817766;79;21079;-60
2022/05/18 12:07:01;;;;;;;2.72;2.22;;;23.00;45.30;;;;;;1813257;78;21144;-60
2022/05/18 12:09:44;;;;;;;7.92;2.40;;;23.00;45.00;;;;;;1819150;79;21126;-61
2022/05/18 12:12:44;;;;;;;4.37;1.70;;;22.90;44.70;;;;;;1836226;78;21110;-59
2022/05/18 12:15:16;;;;;;;5.58;2.67;;;22.90;44.20;;;;;;1826616;78;21119;-59
2022/05/18 12:17:59;;;;;;;6.00;2.08;;;22.90;43.90;;;;;;1820030;78;21494;-62
2022/05/18 12:20:31;;;;;;;6.08;1.77;;;22.90;44.00;;;;;;1833163;77;21121;-59
2022/05/18 12:23:03;;;;;;;10.18;2.58;;;23.00;43.20;;;;;;1833368;77;21064;-59
2022/05/18 12:25:33;;;;;;;9.35;2.55;;;23.10;41.70;;;;;;1812369;78;21082;-60
2022/05/18 12:28:04;;;;;;;11.33;4.12;;;23.10;41.10;;;;;;1801523;79;21518;-59
2022/05/18 12:30:36;;;;;;;8.28;2.17;;;23.10;40.90;;;;;;1801386;79;21506;-59
2022/05/18 12:33:07;;;;;;;6.35;1.80;;;23.10;41.00;;;;;;1802634;79;21151;-59
2022/05/18 12:35:51;;;;;;;10.75;2.30;;;22.90;40.70;;;;;;1802633;79;21604;-60
2022/05/18 12:38:28;;;;;;;8.93;2.95;;;22.90;40.70;;;;;;1802394;79;21145;-59
2022/05/18 12:41:01;;;;;;;4.03;2.00;;;22.80;40.80;;;;;;1802836;79;21553;-59
2022/05/18 12:43:48;;;;;;;4.10;1.80;;;22.70;41.10;;;;;;1802936;79;21560;-59
2022/05/18 12:46:25;;;;;;;4.12;2.00;;;22.70;41.10;;;;;;1802904;79;21043;-59
2022/05/18 12:49:03;;;;;;;2.62;1.80;;;22.60;40.90;;;;;;1802844;77;21051;-59
2022/05/18 12:51:38;;;;;;;4.83;2.35;;;22.60;40.60;;;;;;1804502;78;21111;-58
2022/05/18 12:54:22;;;;;;;6.70;2.35;;;22.60;40.50;;;;;;1828837;78;21079;-60
2022/05/18 12:57:09;;;;;;;13.05;2.67;;;22.60;40.20;;;;;;1833782;78;21047;-59
2022/05/18 13:00:03;;;;;;;7.47;2.37;;;22.50;40.10;;;;;;1834422;78;21039;-59
2022/05/18 13:02:43;;;;;;;8.25;2.05;;;22.40;40.00;;;;;;1829711;78;21156;-59
2022/05/18 13:05:31;;;;;;;3.33;1.70;;;22.30;40.00;;;;;;1834278;78;21086;-59
2022/05/18 13:08:22;;;;;;;4.12;1.90;;;22.30;40.00;;;;;;1834631;78;21079;-59
2022/05/18 13:11:16;;;;;;;5.95;2.20;;;22.40;40.70;;;;;;1834252;78;21196;-59
2022/05/18 13:14:06;;;;;;;3.72;1.67;;;22.50;40.80;;;;;;1834338;78;21075;-59
2022/05/18 13:16:42;;;;;;;4.12;1.60;;;22.70;40.70;;;;;;1834117;78;21078;-59
2022/05/18 13:19:23;;;;;;;5.87;2.00;;;22.90;40.10;;;;;;1834546;78;21560;-59
2022/05/18 13:22:01;;;;;;;12.88;2.85;;;23.00;39.80;;;;;;1834340;78;21090;-59
2022/05/18 13:24:42;;;;;;;8.03;1.92;;;22.90;39.10;;;;;;1834381;78;21152;-59
2022/05/18 13:27:18;;;;;;;6.75;3.60;;;22.90;39.20;;;;;;1834445;78;21098;-59
2022/05/18 13:29:50;;;;;;;2.58;1.98;;;22.90;39.40;;;;;;1834467;78;21133;-59
2022/05/18 13:32:19;;;;;;;5.37;2.45;;;22.80;39.40;;;;;;1834310;78;21050;-59
2022/05/18 13:34:54;;;;;;;6.05;2.33;;;22.70;39.50;;;;;;1834237;78;21117;-59
2022/05/18 13:37:22;;;;;;;;;;;22.70;39.70;;;;;;1837130;78;21098;-59
2022/05/18 13:39:52;;;;;;;6.12;2.12;;;22.60;39.90;;;;;;1834316;78;20112;-58
2022/05/18 13:42:23;;;;;;;3.20;2.00;;;22.60;39.80;;;;;;1834326;77;21047;-59